COOLWX HOME

EXTREME HOME

OTHER COOLWX PAGES
    Coolwx Hit Images
    Extreme Weather
    Global Forecasts
    Hourly Model Forecasts
    Mesoscale Analysis
    Obs. Weather Database
    Offshore Weather Data
    Precipitation Type
    Record Breakers
    U.S. Weather Statistics


EXTREME WX CATEGORIES
   CITIES & VALUES:
       Temperature
       Dewpoint
       Heat Index
       Wind
       Wind Chill
       Pressure
       Pressure Change
       Precip Type/Intensity
       Precip Amount
       Thunderstorm
       Blizzard
       Visibility
       Astronomical
       Other
       Multiple
       Unknown
   CITIES & FULL REPORTS:
       Temperature
       Dewpoint
       Heat Index
       Wind
       Wind Chill
       Pressure
       Pressure Change
       Precip Type/Intensity
       Precip Amount
       Thunderstorm
       Blizzard
       Visibility
       Astronomical
       Other
       Multiple
   USA & WORLD PLOTS:
       Temperature
       Dewpoint
       Wind
       Wind Chill & Heat Index
       Pressure
       Pressure Change
       Precip Type/Intensity
       Precip Amount
       Thunderstorm
       Blizzard
       Visibility
       Astronomical
       Other
       Unknown
   REPEAT OFFENDERS:
       Today
       Yesterday
       This month
       This year
       Since 2007
   RSS:
       Feed
   ARCHIVE:
       2024062123
       2024062121
       2024062118
       2024062115
       2024062112
       2024062109
       2024062106
       2024062103
       2024062100
       2024062021
       2024062018
       2024062015
       2024062012
       2024062009
       2024062006
       2024062003
       2024062000
       2024061921
       2024061918
       2024061915
       2024061912
       2024061909
       2024061906
       2024061903

CONTACT
       Bob Hart
       (rhart at fsu.edu)

Extreme & Weird Weather of the World - Archive for 2024051918
Currently using 36525 observations from 5173 unique global stations over the past 3 hours.
Last Updated: Sun May 19 18:46:30 UTC 2024



1 station reporting temperature -55°C or colder

0 stations reporting temperature -50°C to -54°C

0 stations reporting temperature -45°C to -49°C

0 stations reporting temperature -40°C to -44°C

0 stations reporting temperature 55°C or warmer

0 stations reporting temperature 50°C to 54°C

1 station reporting temperature 45°C to 49°C

24 stations reporting temperature 40°C to 44°C


2 stations reporting dewpoint 30°C or greater

29 stations reporting dewpoint 28-29°C

200 stations reporting dewpoint 26-27°C


0 stations reporting wind gusts 70kt or stronger

0 stations reporting wind gusts 60-69kt

3 stations reporting wind gusts 50-59kt

11 stations reporting wind gusts 40-49kt


1 station reporting (sustained) wind chill of -55°C or colder

0 stations reporting (sustained) wind chill of -50°C to -54°C

0 stations reporting (sustained) wind chill of -45°C to -49°C

0 stations reporting (sustained) wind chill of -40°C to -44°C


0 stations reporting heat index of 55°C or hotter

3 stations reporting heat index of 50°C to 54°C

19 stations reporting heat index of 45°C to 49°C

136 stations reporting heat index of 40°C to 44°C


0 stations reporting sea level pressure < 950mb

0 stations reporting sea level pressure 950mb - 959mb

1 station reporting sea level pressure 960mb - 969mb

  • PFTO: UNKNOWN, [969.4mb, 28.62in]    
    PFTO 191756Z AUTO 22005KT 10SM CLR 13/00 A2967 RMK AO2 SLP694 T01280000 10128 21006 58014 $
    PFTO 191656Z AUTO 00000KT 10SM CLR 11/M02 A2969 RMK AO2 SLP699 T01061022 $
2 stations reporting sea level pressure 970mb - 979mb

  • PACX: UNKNOWN, [973.0mb, 28.73in]    
    PACX 191756Z AUTO 00000KT 10SM CLR 12/M03 A2983 RMK AO2 SLP730 T01171033 10122 20039 58011
    PACX 191656Z AUTO 04005KT 10SM CLR 10/M02 A2985 RMK AO2 SLP735 T01001022
    PACX 191556Z AUTO 07006KT 10SM CLR 08/M02 A2986 RMK AO2 SLP739 T00781017
    PACX 191456Z AUTO 04008KT 10SM CLR 06/M02 A2987 RMK AO2 SLP741 T00561017 56005
  • PFTO: UNKNOWN, [970.5mb, 28.65in]    
    PFTO 191556Z AUTO 00000KT 10SM CLR 09/M01 A2970 RMK AO2 SLP705 T00941011 $
    PFTO 191456Z AUTO 00000KT 10SM CLR 06/M04 A2971 RMK AO2 SLP709 T00561039 58007 $
2 stations reporting sea level pressure 980mb - 989mb

  • SCRM: Teniente Rodolfo, Antarctica [983mb, 29.02in]    
    SCRM 191800Z 26025KT 9999 BKN020 M02/M04 Q0983 NOSIG
    SCRM 191700Z 27023KT 9999 BKN030 M03/M03 Q0983 NOSIG
    SCRM 191600Z 27029KT 9999 BKN030 M01/M05 Q0983 NOSIG
    SCRM 191500Z 27024KT 9999 BKN045 M01/M05 Q0983 NOSIG
  • NZCM: Williams Field, Antarctica [982.8mb, 29.02in]    
    NZCM 191755Z AUTO 05014KT 9999 SCT120 BKN150 M24/M29 A2903 RMK AO2 SLP836 T12441289 11224 21259 51007 $
    NZCM 191655Z AUTO 05012KT 9999 CLR M23/M27 A2902 RMK AO2 SLP835 T12301275 $
    NZCM 191555Z AUTO 05011KT 9999 FEW150 M23/M27 A2901 RMK AO2 SLP830 T12271266 $
    NZCM 191455Z AUTO 08007KT 9999 CLR M24/M28 A2900 RMK AO2 SLP828 T12351276 53002 $
0 stations reporting sea level pressure > 1055mb

0 stations reporting sea level pressure 1050-1054mb

0 stations reporting sea level pressure 1045-1049mb

1 station reporting sea level pressure 1040-1044mb

  • SLLP: La Paz / Alto, Bolivia [1042mb, 30.76in]    
    SLLP 191700Z 29010G20KT 250V340 9999 FEW020 13/M04 Q1040
    SLLP 191600Z 30007KT 9999 FEW017 12/M03 Q1041
    SLLP 191500Z 27006KT 9999 FEW015 11/M01 Q1042
9 stations reporting sea level pressure 1035-1039mb

  • SLLP: La Paz / Alto, Bolivia [1039mb, 30.68in]    
    SLLP 191800Z 28009G19KT 190V320 9999 FEW023 14/M03 Q1039
  • SLOR: Oruro, Bolivia [1038mb, 30.65in]    
    SLOR 191600Z 36003KT 9999 NSC 14/M00 Q1038
    SLOR 191500Z 34004KT 9999 NSC 12/02 Q1038
  • SPHY: Andahuayla, Peru [1038mb, 30.65in]    
    SPHY 191800Z 07003KT 9999 SCT012 17/09 Q1035 RMK BIRD HAZARD RWY03/21 PP000
    SPHY 191700Z 35003KT 9999 SCT012 17/09 Q1036 RMK BIRD HAZARD RWY03/21 PP000
    SPHY 191600Z 03007KT 9999 SCT012 15/08 Q1038 RMK BIRD HAZARD RWY03/21 PP000
    SPHY 191500Z 02005KT 9999 SCT012 15/08 Q1038 RMK BIRD HAZARD RWY03/21 PP000
  • SPJJ: Jauja, Peru [1037mb, 30.62in]    
    SPJJ 191700Z 33004KT 270V020 9999 SCT040 19/09 Q1035 RMK PP000
    SPJJ 191600Z 15004KT 080V230 9999 SCT040 18/09 Q1036 RMK PP000
    SPJJ 191500Z VRB03KT 9999 SCT040 16/08 Q1037 RMK PP000
  • SPJL: Juliaca, Peru [1039mb, 30.68in]    
    SPJL 191800Z 06006KT 020V160 9999 FEW020 17/M03 Q1036 RMK PP000
    SPJL 191700Z VRB03KT CAVOK 16/M01 Q1037 RMK PP000
    SPJL 191600Z VRB04KT CAVOK 14/M01 Q1039 RMK PP000
    SPJL 191500Z VRB03KT CAVOK 12/M03 Q1039 RMK PP000
  • SPZO: Cuzco, Peru [1036mb, 30.59in]    
    SPZO 191630Z VRB04KT 9999 SCT060 18/03 Q1035 NOSIG RMK BIRD HAZARD RWY 10/28
    SPZO 191600Z 33005KT 280V060 9999 SCT060 18/04 Q1035 NOSIG RMK BIRD HAZARD RWY 10/28 PP000
    SPZO 191530Z 04004KT 330V100 9999 SCT060 16/05 Q1036 NOSIG RMK BIRD HAZARD RWY 10/28
    SPZO 191500Z 02003KT 310V100 9999 SCT060 16/05 Q1036 NOSIG RMK BIRD HAZARD RWY 10/28 PP000
  • CYHK: Gjoa Haven Airport, Canada [1035.9mb, 30.58in]    
    CYHK 191800Z 06008KT 15SM OVC020 00/M02 A3057 RMK SC8 SLP357
    CYHK 191700Z 06008KT 15SM OVC020 00/M01 A3057 RMK SC8 SLP357
    CYHK 191600Z 05007KT 15SM OVC020 00/M01 A3057 RMK SC8 SLP359
    CYHK 191500Z 06009KT 15SM OVC020 M00/M02 A3057 RMK SC8 SLP359
  • CYRB: Resolute, NT, Canada [1035.9mb, 30.58in]    
    CYRB 191800Z VRB02KT 25SM SCT003 OVC016 M05/M06 A3055 RMK ST3SC5 SLP356
    CYRB 191700Z VRB02KT 9SM SCT003 OVC016 M06/M07 A3056 RMK ST3SC5 SLP358
    CYRB 191630Z VRB02KT 9SM SCT003 OVC006 M06/M07 A3056 RMK ST3ST5 SLP358
    CYRB 191600Z 14002KT 9SM FEW003 OVC016 M07/M08 A3056 RMK ST2SC6 SLP359
    CYRB 191500Z 21002KT 10SM FEW002 OVC015 M07/M08 A3056 RMK ST1SC7 SLP358
  • CYYH: Spence Bay Airport, Canada [1036.0mb, 30.59in]    
    CYYH 191800Z VRB02KT 15SM FEW009 OVC018 00/M04 A3058 RMK SF1NS8 SF TR SLP359
    CYYH 191700Z 10005KT 030V110 15SM FEW009 OVC018 00/M04 A3058 RMK SF1SC8 SF TR SLP360
    CYYH 191600Z 00000KT 15SM FEW009 OVC018 M01/M04 A3058 RMK SF1SC8 SF TR SLP360
    CYYH 191500Z 18003KT 15SM FEW009 OVC018 M01/M04 A3058 RMK SF1SC8 SF TR SLP360


0 stations reporting 3-hourly pressure fall of 10mb or greater

0 stations reporting 3-hourly pressure fall of 5mb to 9.9mb

1 station reporting 3-hourly pressure rise of 5mb to 9.9mb

  • CWGM: Waterton Park Gate, Canada [9.7mb]
    CWGM 191600Z AUTO 00000KT M00/M01 RMK AO1 4PAST HR SOG 02 1017 SLP171 P0021 T10011006 50076
    CWGM 191700Z AUTO 20003KT 01/01 RMK AO1 4PAST HR SOG 02 1012 SLP172 P0005 T00070005 50090
    CWGM 191800Z AUTO 20007KT 02/M00 RMK AO1 6PAST HR SOG 01 2011 SLP175 P0002 T00231004 50097
0 stations reporting 3-hourly pressure rise of 10mb or greater


0 stations reporting heavy snow

0 stations reporting any sleet

1 station reporting any freezing rain

  • PALU: Cape Lisburne, Cape Lisburne LRRS Airport, AK, United States
    PALU 191446Z AUTO 10006KT 1/4SM -FZRA FZFG VV002 01/01 A2995
    PALU 191446Z AUTO 10006KT 1/4SM -FZRA FZFG VV002 01/01 A2995 RMK AO2 SLP143
    PALU 191455Z AUTO 09006KT M1/4SM -FZRA FZFG VV002 01/01 A2995
    PALU 191455Z AUTO 09006KT M1/4SM -FZRA FZFG VV002 01/01 A2995 RMK AO2 SLP142 P0000 60000 T00080010 57006
23 stations reporting heavy rain

  • CYQF: Red Deer, Alta., Canada
    CYQF 191816Z AUTO 31019G28KT 8SM +RA FEW032 BKN039 OVC055 06/01 A2989 RMK PRESRR PCPN 0.8MM PAST HR SLP150
  • EBBL: Kleine Brogel, Belgium
    EBBL 191510Z AUTO 32007KT 6000 +RA BKN035/// BKN056/// BKN065/// ///// Q1010 WHT
    EBBL 191511Z AUTO 32007KT 4600 +RA BKN035/// BKN056/// BKN065/// ///// Q1010 GRN
    EBBL 191514Z AUTO 32006KT 3500 +RA BKN035/// BKN056/// BKN065/// ///// Q1010 YLO
  • EHEH: Eindhoven, Netherlands
    EHEH 191734Z AUTO 06010KT 040V130 3100 R03/P3000N +RA SCT015CB BKN043 BKN051 OVC060 15/13 Q1011 YLO
    EHEH 191739Z AUTO 08007KT 050V210 8000 +SHRA FEW005 SCT015CB BKN044 BKN049 15/13 Q1011 WHT
  • EHWO: Woensdrecht, Netherlands
    EHWO 191625Z AUTO 18002KT 9000 +SHRA FEW006 SCT012 BKN015CB 13/12 Q1011 RETS GRN
  • ETAD: Spangdahlem, Germany
    ETAD 191501Z 26003KT 3200 +RA BKN024 OVC047 14/10 A2983 RMK AO2A VIS 1400V6000 LTG DSNT E TSE01 SLP093 $
  • ETOU: Wiesbaden, Germany
    ETOU 191522Z AUTO 02009KT 9999 +RA FEW027 BKN045 18/12 A2983 RMK AO2 RAB22 SLP104 $
    ETOU 191532Z AUTO 15003KT 9000 +RA FEW005 FEW019 BKN027 BKN034 BKN041 OVC048 17/12 A2982 RMK AO2 RAB22 CIG 027V045 BKN027 V FEW SLP101 $
    ETOU 191537Z AUTO 17007KT 3600 +RA FEW005 SCT027 BKN037 BKN048 17/12 A2982 RMK AO2 VIS 3600V9999 RAB22 SLP101 $
    ETOU 191552Z AUTO 07004KT 3000 +RA FEW004 FEW026 OVC045 16/13 A2983 RMK AO2 VIS 3000V4000 LTG DSNT N AND S AND W RAB22 SLP104 $
  • EYVI: Vilnius, Lithuania
    EYVI 191550Z 21009KT 150V240 1800 +SHRA TS BKN012CB BKN045 13/11 Q1015 RERA
  • KAVL: Asheville, Asheville Regional Airport, NC, United States
    KAVL 191605Z 15008KT 1 3/4SM +RA BR SCT011 BKN036 OVC048 19/17 A3004 RMK AO2 RAB1558 P0006 T01890167
  • KD73: Monroe, GA, United States
    KD73 191515Z AUTO 06007KT 3SM +RA BR SCT006 BKN048 OVC080 18/ A2998 RMK AO2 LTG DSNT SE AND S P0011 T0184////
  • KHYX: Saginaw, MI, United States
    KHYX 191555Z AUTO 27001KT 4SM +RA HZ SCT055 SCT085 BKN100 24/18 A2993 RMK AO2 P0004
  • KIIY: Washington, GA, United States
    KIIY 191515Z AUTO 01005KT 1 1/2SM +RA BR BKN006 BKN010 OVC031 18/18 A2998 RMK AO2 VIS 3/4V2 1/2 LTG DSNT S P0024 T01840181
    KIIY 191535Z AUTO 05005KT 2 1/2SM +RA BR BKN008 BKN031 OVC070 18/18 A2998 RMK AO2 VIS 1 1/4V5 LTG DSNT S P0032 T01840182
  • KNRN: Norton, KS, United States
    KNRN 191755Z AUTO 09006G17KT 3SM +RA SCT014 BKN040 OVC050 15/11 A2994 RMK AO2
  • KPXE: Perry, GA, United States
    KPXE 191815Z AUTO 33009G17KT 7SM +RA SCT030 BKN055 OVC120 A2992 RMK AO2 LTG DSNT SE
  • KQHB: UNKNOWN,
    KQHB 191655Z AUTO 32004KT 9999 +RA BKN065 OVC080 16/13 A2995 RMK AO2 SLP145 P0012 T01580127 $
    KQHB 191755Z AUTO 36003KT 8000 +RA FEW011 BKN044 BKN055 BKN075 OVC090 15/13 A2993 RMK AO2 SLP138 P0020 60033 T01510128 10211 20151 57014 $
  • KU52: Beaver, UT, United States
    KU52 191515Z AUTO 34003KT 10SM +RA SCT110 17/03 A3001 RMK AO2
    KU52 191635Z AUTO 04004KT 10SM +RA CLR 20/M02 A3001 RMK AO2
  • LEBB: Bilbao / Sondica, Spain
    LEBB 191747Z 30005KT 240V340 7000 +RA BKN017 BKN030 14/14 Q1012
  • LFBP: Pau, France
    LFBP 191800Z AUTO 30006KT 270V330 1800 0800 R31/1300U R13/1800D +RA BCFG SCT020/// BKN025/// BKN033/// //////TCU 14/13 Q1011
    LFBP 191800Z AUTO 30006KT 270V330 1800 0800 R31/1300U R13/1800D +RA BCFG SCT020/// BKN025/// BKN033/// ///TCU 14/13 Q1011
  • LFGA: Colmar Houssen Airport, France
    LFGA 191600Z AUTO 04006KT 9999 +RA FEW049/// BKN068/// BKN078/// ///CB 17/14 Q1010
  • NVVV: Bauerfield Efate, Vanuatu
    NVVV 191800Z 20005KT 2000 +RA SCT006 BKN018 OVC100 25/25 Q1009
  • PKMR: Majuro Atoll NWS Office, Marshall Islands
    PKMR 191515Z 12005KT 1/2SM +SHRA SCT014TCU BKN045 OVC110 26/24 A2976
    PKMR 191515Z 12005KT 1/2SM +SHRA SCT014TCU BKN045 OVC110 26/24 A2976 RMK TCU ALQDS
  • PKWA: Kwajalein, Marshall Islands
    PKWA 191840Z AUTO 09024G31KT 1 3/4SM +RA BKN014 BKN028 OVC035 27/25 A2981
    PKWA 191840Z AUTO 09024G31KT 1 3/4SM +RA BKN014 BKN028 OVC035 27/25 A2981 RMK AO2 P0011 T02730250 TSNO
  • RJNY: Shizuhama Ab, Japan
    RJNY 191447Z 04008KT 010V070 2500 +SHRA BR SCT015 BKN025 OVC045 15/14 Q1016 RMK 3CU015 7CU025 8SC045 A3003 VIS W 1800M
  • RJTR: Zama Airfield, Japan
    RJTR 191805Z AUTO 32005KT 1 5/8SM +RA BR OVC045 14/13 A3001 RMK AO2 VIS 1 5/8V2 1/2 SLP164 $
9 stations reporting unknown precipitation type

  • CYQF: Red Deer, Alta., Canada
    CYQF 191844Z AUTO 33019G29KT 5SM -RA UP BKN031 BKN041 OVC055 05/02 A2990 RMK LTNG DIST SE PCPN 1.3MM PAST HR SLP156
  • KIZA: Santa Ynez, Santa Ynez Airport, CA, United States
    KIZA 191515Z AUTO 24003KT 9SM UP OVC010 12/11 A3006 RMK AO2
  • KLEW: Auburn-Lewiston, ME, United States
    KLEW 191610Z AUTO 11004KT 3SM UP FEW008 OVC012 A3009 RMK AO2 RAE1558UPB1558 P0000 FZRANO $
    KLEW 191708Z AUTO VRB03KT 5SM UP BKN008 OVC012 A3008 RMK AO2 RAE03UPB03 CIG 005V009 P0000 FZRANO $
  • PAOT: Kotzebue, Ralph Wien Memorial Airport, AK, United States
    PAOT 191453Z 05003KT 10SM UP SCT043 BKN055 OVC110 00/00 A2980
    PAOT 191453Z 05003KT 10SM UP SCT043 BKN055 OVC110 00/00 A2980 RMK AO2 UPB36 SLP090 P0001 60001 T00000000 55010 $
  • PAOU: Nelson Lagoon, AK, United States
    PAOU 191445Z AUTO 32013KT 1 1/4SM UP BR OVC003 02/01 A2997 RMK AO2 UPE00B26 FZRANO PNO $
    PAOU 191456Z AUTO 32014KT 1 1/4SM UP BR OVC003 02/01 A2997 RMK AO2 UPE00B26 SLP149 6//// T00170011 53009 FZRANO PNO $
  • PAPH: Port Heiden, Port Heiden Airport, AK, United States
    PAPH 191456Z AUTO 26019G24KT 1 1/2SM UP BR OVC004 02/02 A2990 RMK AO2 PK WND 26027/1415 RAE07UPB07 CIG 003V007 SLP125 P0000 60000 T00220022 53022 FZRANO $
    PAPH 191652Z AUTO 26018G25KT 2SM UP BR SCT004 BKN007 OVC012 03/02 A2994 RMK AO2 RAE21UPB21 CIG 005V009 P0001 $
    PAPH 191656Z AUTO 25017G25KT 2SM UP BR BKN004 OVC012 03/02 A2994 RMK AO2 RAE21UPB21 CIG 003V009 SLP141 P0001 T00280022 $
    PAPH 191711Z AUTO 26017KT 1 3/4SM UP BR OVC004 03/02 A2995 RMK AO2 CIG 003V008 P0000 $
    PAPH 191756Z AUTO 26018G23KT 1 1/2SM UP BR OVC004 03/03 A2996 RMK AO2 SLP147 P0000 60001 T00280028 10028 20022 53013 $
    PAPH 191810Z AUTO 26017G23KT 2SM UP BR OVC004 03/03 A2997 RMK AO2 P0000 $
  • PAQT: Nuiqsut, Nuiqsut Airport, AK, United States
    PAQT 191553Z AUTO 07018KT 8SM UP OVC009 M02/M04 A3009 RMK AO2 UPB03E27B51SNE03B04E15B43E51B52E53 SLP189 P0000 T10221044 TSNO $
    PAQT 191753Z AUTO 07018KT 8SM UP OVC008 M02/M04 A3008 RMK AO2 UPB08E18B48 SLP186 P0000 60000 T10221044 11017 21028 58005 TSNO $
  • PASA: Savoonga Airport, AK, United States
    PASA 191556Z AUTO 29003KT 8SM UP OVC018 M01/M02 A2997 RMK AO2 UPB55 SLP149 P0000 T10061022 FZRANO
  • PPIZ: Point Lay, Point Lay LRRS Airport, AK, United States
    PPIZ 191446Z AUTO 06021KT 1 1/4SM UP BR OVC003 M02/M03 A2997 RMK AO2 UPE15B44SNB1359E08B25E44 P0000 FZRANO
    PPIZ 191450Z AUTO 06018KT 3SM UP BR OVC003 M02/M03 A2997 RMK AO2 UPE15B44SNB1359E08B25E44 P0000 FZRANO


0 stations reporting ice accretion in the past 1 hour

0 stations reporting ice accretion in the past 3 hours

0 stations reporting ice accretion in the past 6 hours

0 stations reporting hourly snow depth increase (SNINCR) of 3+"

0 stations reporting hourly snow depth increase (SNINCR) of 2"

0 stations reporting hourly snow depth increase (SNINCR) of 1"

0 stations reporting hourly (melted) precip total of 3" or greater

0 stations reporting hourly (melted) precip total of 2-2.99"

2 stations reporting hourly (melted) precip total of 1-1.99"

  • KMHP: Metter, GA, United States [1.09in]
    KMHP 191835Z AUTO 33009G18KT 1/2SM +TSRA FG BKN008 OVC019 19/19 A2992 RMK AO2 LTG DSNT ALQDS P0109 T01940188
  • KNBC: Beaufort, Marine Corps Air Stn, SC, United States [1.13in]
    KNBC 191752Z 00000KT 1/4SM -TSRA BKN016 BKN029 OVC090 21/19 A2986 RMK AO2 PK WND 34059/1722 WSHFT 1709 SFC VIS 9 RAB05 P0113
    KNBC 191756Z 00000KT 1/4SM -TSRA BKN023 BKN036 OVC095 21/20 A2986 RMK AO2 PK WND 34059/1722 WSHFT 1709 SFC VIS 10 RAB05 SLP113 P0113 60113 T02110200 10289 20189 55010
6 stations reporting hourly (melted) precip total of 0.5-0.99"

  • KARW: Beaufort, SC, United States [0.63in]
    KARW 191835Z AUTO 08003KT 10SM -TSRA SCT019 BKN024 OVC090 20/17 A2988 RMK AO2 LTG DSNT ALQDS P0063
  • KFPR: Fort Pierce, St. Lucie County Intl Arpt, FL, United States [0.67in]
    KFPR 191731Z 17014G21KT 3/4SM +TSRA BR SCT014 BKN039 OVC055 22/19 A2993 RMK AO2 PK WND 16027/1703 LTG DSNT E AND W AND NW P0059 T02170194
    KFPR 191742Z 12012KT 2SM -TSRA FEW028 BKN039 OVC090 23/21 A2990 RMK AO2 PK WND 16027/1703 WSHFT 1726 LTG DSNT ALQDS P0065 T02330206
    KFPR 191751Z 17006KT 7SM -TSRA FEW025 BKN039 OVC090 23/21 A2992 RMK AO2 PK WND 16027/1703 WSHFT 1726 LTG DSNT ALQDS P0066
    KFPR 191753Z VRB06KT 6SM TSRA BR FEW025 BKN039 OVC090 23/21 A2992 RMK AO2 PK WND 16027/1703 WSHFT 1726 LTG DSNT ALQDS SLP132 P0067 60069 T02280206 10350 20217 55001
  • KNBC: Beaufort, Marine Corps Air Stn, SC, United States [0.58in]
    KNBC 191725Z 27009G59KT 220V350 1/4SM +TSRA BKN012 BKN021 OVC075 19/17 A2986 RMK AO2 PK WND 34059/1722 WSHFT 1709 RAB05 P0058 T01940167
  • KOKZ: Sandersville Kaolin, GA, United States [0.62in]
    KOKZ 191755Z AUTO 03008KT 10SM -TSRA SCT012 BKN060 OVC080 20/19 A2993 RMK AO2 LTG DSNT SE AND S P0062 T01970192 10246 20186 60120
  • KVDI: Vidalia, Vidalia Municipal Airport, GA, United States [0.96in]
    KVDI 191835Z AUTO 02018G23KT 1/2SM +TSRA BKN011 OVC015 20/18 A2987 RMK AO2 LTG DSNT ALQS P0096
  • KVRB: Vero Beach, FL, United States [0.92in]
    KVRB 191813Z VRB03KT 1/4SM +TSRA BKN018 OVC046 25/22 A2995 RMK AO2 LTG DSNT ALQDS P0053 T02500222
    KVRB 191825Z 13010KT 1SM -TSRA BR BKN018 OVC060 24/22 A2994 RMK AO2 LTG DSNT ALQDS P0092 T02440222
    KVRB 191831Z 11012KT 6SM BR BKN020 BKN055 OVC085 25/23 A2993 RMK AO2 LTG DSNT ALQDS RAE31 TSE31 P0092 T02500228
0 stations reporting 3 or 6 hourly (melted) precip total of 5" or greater

0 stations reporting 3 or 6 hourly (melted) precip total of 4-4.99"

0 stations reporting 3 or 6 hourly (melted) precip total of 3-3.99"

1 station reporting 3 or 6 hourly (melted) precip total of 2-2.99"

  • PKMR: Majuro Atoll NWS Office, Marshall Islands [2.03in]
    PKMR 191751Z 00000KT 15SM SCT014TCU BKN045 OVC110 26/25 A2979 RMK SHRAE05RAB05E39 TCU ALQDS SLP090 60203 8/87/ T02630246 10263 20259 5300


0 stations reporting tornado, funnel cloud or waterspout

0 stations reporting mammatus cloud

2 stations reporting hail

  • CWSW: Sparwood / Elk Valley, Canada [3mm]
    CWSW 191830Z 00000KT 15SM -SHGR BKN047TCU BKN060 08/M01 A2994 RMK TCU6SC1 HAIL DIAM 03 MM SLP162
  • EDDV: Hannover, Germany [unreported size]
    EDDV 191520Z AUTO 13007KT 090V170 9999 +TSGRRA FEW030 SCT037 BKN044 BKN///CB 17/11 Q1008
0 stations reporting thundersnow

0 stations reporting thundersleet

0 stations reporting thunder with freezing rain

88 stations reporting thunder with rain

  • CYGL: La Grande Riviere, Que, Canada
    CYGL 191705Z 17009G15KT 12SM -TSRA BKN022 OVC070 17/16 A2961 RMK SC5AC3 CB EMBD W MOV E LTGIC W SLP035 DENSITY ALT 1500FT
    CYGL 191705Z CCA 17009G15KT 12SM -TSRA BKN022 OVC070 17/16 A2961 RMK SC5AC3 CB EMBD W MOV E OCNL LTGIC W SLP035 DENSITY ALT 1500FT
    CYGL 191728Z 17013G22KT 4SM TSRA BR BKN013 BKN050CB OVC070 16/15 A2960 RMK SC5CB2AC1 OCNL LTGIC NE SLP033 DENSITY ALT 1300FT
    CYGL 191732Z 18011G22KT 6SM -TSRA BR BKN013 BKN050CB OVC070 16/15 A2961 RMK SC5CB2AC1 OCNL LTGIC NE SLP036 DENSITY ALT 1300FT
    CYGL 191747Z 18011G19KT 12SM -TSRA SCT013 BKN050CB BKN070 16/14 A2960 RMK SC3CB3AC1 CB NE MOV E OCNL LTGIC NE SLP033 DENSITY ALT 1300FT
    CYGL 191800Z 18010G15KT 12SM -TSRA SCT013 BKN050CB BKN150 OVC240 16/15 A2961 RMK SC3CB3AC1CI1 CB NE OCNL LTGIC NE SLP035 DENSITY ALT 1300FT
  • CYNM: Matagami, Que., Canada
    CYNM 191725Z AUTO 24006G18KT 6SM TSRA FEW046 BKN055 BKN070 OVC090 21/15 A2976 RMK LTNG DIST SW PRESRR PCPN 0.8MM PAST HR SLP082 DENSITY ALT 2000FT
    CYNM 191737Z AUTO 26008G16KT 6SM -TSRA BR SCT036 BKN055 OVC073 18/16 A2975 RMK LTNG DIST NE PCPN 3.5MM PAST HR SLP079 DENSITY ALT 1700FT
  • DABB: Annaba, Algeria
    DABB 191800Z 05009KT 9999 -TSRA FEW020 FEW026CB BKN200 20/18 Q1008
    DABB 191830Z 04009KT 9999 -TSRA FEW020 FEW026CB BKN200 19/18 Q1009
  • DABC: Constantine, Algeria
    DABC 191700Z 34012KT 9999 -TSRA FEW030 FEW033CB SCT100 19/16 Q1010
    DABC 191730Z 09006KT 9999 -TSRA FEW030 FEW033CB SCT100 19/17 Q1010
    DABC 191800Z 12012KT 9999 -TSRA FEW030 FEW033CB SCT100 18/16 Q1009
  • EBCI: Charleroi / Gosselies, Belgium
    EBCI 191720Z 02008KT 300V060 8000 TSRA SCT020CB 13/11 Q1011
  • EBFS: Florennes, Belgium
    EBFS 191803Z 30003KT 6000 -TSRA FEW010 BKN020CB 16/12 Q1011 WHT BLU
    EBFS 191825Z 32009KT 6000 -TSRA FEW010 BKN020CB 15/10 Q1011 WHT BLU
  • EBLG: Bierset, Belgium
    EBLG 191720Z 02010KT 9999 -TSRA FEW015 BKN034CB 14/09 Q1011
    EBLG 191750Z VRB01KT 9999 -TSRA FEW015 BKN034CB 13/10 Q1011 NOSIG
  • EDAH: Heringsdorf, Germany
    EDAH 191520Z 06006KT 9999 -TSRA FEW015 BKN060CB 17/14 Q1009 RERA
    EDAH 191550Z 19009KT 9999 -TSRA FEW015 BKN047CB 16/14 Q1009
  • EDFM: Baden Wurttemberg, Neuostheim, Germany
    EDFM 191520Z 32009KT 220V010 1600 TSRA FEW022CB SCT028 BKN040 16/14 Q1011
  • EDGS: Hessen, Germany
    EDGS 191520Z 32008KT 8000 -TSRA FEW022 SCT035CB 12/10 Q1010
    EDGS 191620Z 30005KT 9999 -TSRA SCT048CB 11/10 Q1010
  • EDLN: Monchengladbach, Germany
    EDLN 191450Z 27005KT 220V300 4500 TSRA FEW020CB SCT036 17/14 Q1010
    EDLN 191520Z 31007KT 4000 TSRA OVC075CB 16/15 Q1010
  • EDTY: Schwaebisch Hall, Germany
    EDTY 191620Z 26006KT 230V290 9999 -TSRA SCT036CB 17/10 Q1011
  • EHBK: Maastricht Airport Zuid Limburg, Netherlands
    EHBK 191655Z AUTO 32003KT 270V350 9999 -TSRA FEW015CB 14/12 Q1011
    EHBK 191725Z AUTO 25004KT 220V300 9999 TSRA BKN015CB 14/13 Q1011
  • EHDL: Deelen, Netherlands
    EHDL 191655Z AUTO 16006KT 080V190 9999 -TSRA SCT015CB SCT062 OVC069 14/13 Q1010 RERAGR WHT
  • EHEH: Eindhoven, Netherlands
    EHEH 191802Z AUTO 22003KT 190V320 5000 TSRA FEW006 BKN015CB OVC046 14/13 Q1011 WHT
    EHEH 191812Z AUTO 31004KT 310V030 6000 TSRA FEW005 BKN015CB BKN059 14/13 Q1011 WHT
    EHEH 191816Z AUTO 33005KT 310V030 6000 TSRA BKN015CB SCT049 BKN056 14/13 Q1011 WHT
    EHEH 191831Z AUTO 36008KT 260V040 6000 TSRA FEW011 BKN015CB BKN043 14/13 Q1011 WHT
  • EHGR: Gilze-Rijen, Netherlands
    EHGR 191511Z AUTO 24006KT 210V280 9999 -TSRA FEW015CB SCT070 OVC077 17/13 Q1011 BLU
  • EHVK: Volkel, Netherlands
    EHVK 191455Z AUTO 31003KT 190V330 9999 -TSRA FEW015 FEW027CB SCT047 BKN068 16/09 Q1010 BLU
    EHVK 191506Z AUTO 19004KT 170V250 9999 -TSRA FEW018CB SCT071 BKN077 16/11 Q1010 BLU
    EHVK 191540Z AUTO 06005KT 030V110 9999 -TSRA SCT015CB BKN048 BKN055 OVC062 16/12 Q1010 WHT
    EHVK 191555Z AUTO 06010KT 9999 TSRA FEW000 FEW015CB SCT032 BKN043 15/13 Q1010 BLU
    EHVK 191604Z AUTO 13009KT 100V190 9999 TSRA FEW000 FEW015CB SCT039 BKN060 15/13 Q1010 BLU
    EHVK 191617Z AUTO 15008KT 140V200 9999 -TSRA FEW015CB OVC054 15/13 Q1010 BLU
    EHVK 191621Z AUTO 15008KT 140V220 9999 -TSRA DZ SCT015CB BKN054 BKN059 OVC067 15/13 Q1010 WHT
    EHVK 191625Z AUTO 16008KT 160V240 9999 TSRA DZ SCT015CB BKN053 BKN059 15/12 Q1010 WHT
    EHVK 191703Z AUTO 22003KT 9999 -TSRA SCT015CB BKN073 BKN080 15/14 Q1010 WHT
    EHVK 191711Z AUTO 23005KT 200V290 9999 TSRA BKN015CB SCT073 BKN079 15/14 Q1010 WHT
    EHVK 191712Z AUTO 25005KT 210V290 9999 -TSRA BKN015CB BKN076 OVC084 15/14 Q1010 WHT
    EHVK 191719Z AUTO 26006KT 9999 -TSRA SCT015CB SCT072 BKN079 15/14 Q1010 WHT
    EHVK 191725Z AUTO 26006KT 240V050 9999 TSRA SCT015CB BKN070 OVC076 15/14 Q1010 WHT
    EHVK 191738Z AUTO 01008KT 310V080 3400 TSRA FEW009 BKN015CB BKN032 15/13 Q1011 YLO
    EHVK 191755Z AUTO 27005KT 220V290 9999 TSRA FEW001 BKN015CB BKN064 14/13 Q1011 WHT
    EHVK 191759Z AUTO 25005KT 210V290 9999 TSRA FEW001 BKN015CB OVC071 14/13 Q1011 WHT
    EHVK 191803Z AUTO 24004KT 210V270 9999 TSRA FEW001 BKN015CB BKN068 OVC074 14/13 Q1011 WHT
    EHVK 191807Z AUTO 25004KT 9999 TSRA FEW001 BKN015CB BKN068 14/13 Q1011 WHT
    EHVK 191808Z AUTO 26004KT 9999 TSRA BKN015CB BKN052 BKN058 OVC071 14/13 Q1011 WHT
    EHVK 191815Z AUTO 26004KT 210V280 9000 TSRA BKN015CB SCT049 BKN053 OVC070 14/13 Q1011 WHT
    EHVK 191816Z AUTO 24005KT 210V280 7000 TSRA BKN015CB SCT049 BKN060 14/13 Q1010 WHT
  • EHWO: Woensdrecht, Netherlands
    EHWO 191542Z AUTO 28001KT 9999 -TSRA FEW015CB BKN071 OVC077 17/15 Q1011 BLU
    EHWO 191555Z AUTO 28002KT 9999 -TSRA SCT015CB OVC071 17/15 Q1011 WHT
    EHWO 191610Z AUTO 04015G26KT 320V070 9999 TSRA BKN015CB SCT035 BKN039 14/12 Q1012 WHT
  • EICK: Cork Airport, Ireland
    EICK 191730Z 09004KT 050V120 9000 -TSRA SCT020CB SCT038 BKN090 18/13 Q1016
  • EPBY: Bydgoszcz Ignacy Jan Paderewski Airport, Poland
    EPBY 191800Z 20008G18KT 100V230 9999 -TSRA BKN032CB 19/11 Q1011
  • EPKT: Katowice, Poland
    EPKT 191700Z 27008G19KT 240V320 9999 -TSRA FEW009 BKN045CB 17/13 Q1011 RESHRA
    EPKT 191730Z 26013KT 5000 TSRA FEW003 BKN036CB 14/12 Q1011
  • ETAD: Spangdahlem, Germany
    ETAD 191445Z 31005KT 9000 -TSRA BKN022 BKN028 14/11 A2984 RMK AO2A RAB20 TSE27TSB30 SLP097 $
    ETAD 191506Z 00000KT 5000 TSRA BKN024 BKN048 BKN065 14/11 A2983 RMK AO2A TSE01TSB06 SLP093 $
  • ETHB: Bueckeburg, Germany
    ETHB 191528Z 22003KT 9999 -TSRA BKN025CB 17/13 Q1008 BLU
  • ETMN: Nordholz, Germany
    ETMN 191620Z 34008KT 8000 -TSRA SCT040CB BKN065 18/11 Q1009 BLU
  • ETNL: Laage, Germany
    ETNL 191545Z 08013G23KT 6000 -TSRA SCT020CB BKN050 17/12 Q1008 WHT
    ETNL 191552Z 10014KT 4000 TSRA BKN020CB BKN050 16/12 Q1009 GRN
    ETNL 191614Z 05006KT 5000 -TSRA BR BKN020CB BKN050 14/13 Q1009 RESHRA WHT
    ETNL 191620Z 05004KT 8000 -TSRA SCT020CB BKN050 14/13 Q1009 RESHRA BLU
  • EYSA: Siauliai Intl./Mil., Lithuania
    EYSA 191820Z 06009KT 9999 -TSRA FEW051CB BKN100 17/12 Q1013 NOSIG
  • EYVI: Vilnius, Lithuania
    EYVI 191620Z 09006KT 5000 TSRA BKN037CB 13/11 Q1015
  • HKKI: Kisumu, Kenya
    HKKI 191800Z 24010KT 9999 -TSRA FEW020CB BKN080 20/18 Q1018
  • HKNI: Nyeri, Kenya
    HKNI 191600Z 24003KT 9999 TSRA FEW017CB BKN018 17/15
  • K2J5: Millen, GA, United States
    K2J5 191735Z AUTO 35004KT 10SM -TSRA OVC012 22/20 A2991 RMK AO2 LTG DSNT SE THRU W T02220198
    K2J5 191835Z AUTO 26003KT 10SM -TSRA OVC021 22/20 A2992 RMK AO2 LTG DSNT SE THRU SW T02200202
  • K48A: Cochran Airport, GA, United States
    K48A 191635Z AUTO 27004KT 3SM -TSRA BR SCT019 BKN032 OVC090 22/21 A2993 RMK AO2 LTG DSNT N THRU E P0010 T02190208
    K48A 191655Z AUTO 33004KT 10SM -TSRA SCT019 BKN033 OVC090 22/21 A2992 RMK AO2 LTG DSNT NE THRU SE P0010 T02180209
  • KARW: Beaufort, SC, United States
    KARW 191815Z AUTO 00000KT 7SM TSRA SCT006 SCT028 BKN080 20/16 A2988 RMK AO2 LTG DSNT ALQDS P0031
    KARW 191835Z AUTO 08003KT 10SM -TSRA SCT019 BKN024 OVC090 20/17 A2988 RMK AO2 LTG DSNT ALQDS P0063
  • KBBW: Broken Bow, Broken Bow Municipal Airport, NE, United States
    KBBW 191523Z AUTO 14004KT 10SM -TSRA BKN090 BKN110 12/11 A2992 RMK AO2 LTG DSNT S AND SW TSB23 P0000 T01170111
  • KC07: Walton Peak, CO, United States
    KC07 191835Z AUTO 29012G22KT 280V350 10SM -TSRA SCT016 BKN023 OVC040 04/01 A3017 RMK AO2 LTG DSNT E SW AND W
  • KCSB: UNKNOWN,
    KCSB 191535Z AUTO 11010G15KT 9SM -TSRA FEW015 SCT039 BKN065 16/15 A2993 RMK AO2 LTG DSNT ALQDS
  • KDBN: Dublin, GA, United States
    KDBN 191655Z AUTO 34005KT 3/4SM TSRA 19/17 A2995 RMK AO2 LTG DSNT ALQS
    KDBN 191735Z AUTO 00000KT 10SM -TSRA SCT032 SCT050 OVC110 19/17 A2995 RMK AO2 LTG DSNT NE S AND SW
    KDBN 191755Z AUTO 34005KT 10SM -TSRA SCT036 BKN050 OVC110 19/17 A2994 RMK AO2 LTG DSNT NE AND SW
  • KDSM: Des Moines, Des Moines Intl Arpt, IA, United States
    KDSM 191749Z 29005KT 10SM -TSRA SCT070CB BKN085 BKN110 OVC130 21/09 A3003 RMK AO2 LTG DSNT S AND SW RAB35 TSB49 OCNL LTGICCG S-SW TS S-SW MOV NE P0000
    KDSM 191754Z 00000KT 10SM -TSRA SCT070CB BKN085 BKN110 OVC130 21/09 A3002 RMK AO2 LTG DSNT S AND SW RAB35 TSB49 SLP161 OCNL LTGICCG SE-SW TS SE-SW MOV NE P0000 60000 T02110094 10244 20167 58002
  • KEEO: Meeker, Meeker Airport, CO, United States
    KEEO 191643Z AUTO 25015G22KT 4SM TSRA FEW055 BKN075 OVC110 17/07 A2997 RMK AO2 LTG DSNT SW RAB39 TSB37 P0005 T01670067 $
    KEEO 191653Z AUTO 31005KT 5SM -TSRA FEW050 OVC075 14/06 A2996 RMK AO2 RAB39 TSB37 SLP078 P0007 T01440056 $
  • KFPR: Fort Pierce, St. Lucie County Intl Arpt, FL, United States
    KFPR 191653Z VRB04G15KT 5SM -TSRA BKN015 BKN048 BKN065 28/22 A2993 RMK AO2 WSHFT 1616 LTG DSNT ALQDS RAB50 TSB23 SLP133 P0002 T02830222
    KFPR 191711Z 11012G27KT 1SM TSRA BKN026 BKN055 OVC070 23/19 A2991 RMK AO2 PK WND 16027/1703 LTG DSNT ALQDS P0037 T02280189
    KFPR 191716Z 07009KT 4SM -TSRA SCT028 BKN044 OVC055 22/19 A2989 RMK AO2 PK WND 16027/1703 LTG DSNT ALQDS P0038 T02220189
    KFPR 191742Z 12012KT 2SM -TSRA FEW028 BKN039 OVC090 23/21 A2990 RMK AO2 PK WND 16027/1703 WSHFT 1726 LTG DSNT ALQDS P0065 T02330206
    KFPR 191751Z 17006KT 7SM -TSRA FEW025 BKN039 OVC090 23/21 A2992 RMK AO2 PK WND 16027/1703 WSHFT 1726 LTG DSNT ALQDS P0066
    KFPR 191753Z VRB06KT 6SM TSRA BR FEW025 BKN039 OVC090 23/21 A2992 RMK AO2 PK WND 16027/1703 WSHFT 1726 LTG DSNT ALQDS SLP132 P0067 60069 T02280206 10350 20217 55001
    KFPR 191757Z 14008KT 130V200 1 1/2SM TSRA BR SCT022 BKN039 OVC090 23/21 A2990 RMK AO2 VIS 1/2V5 LTG DSNT ALQDS P0010 T02280206
    KFPR 191808Z 09005G23KT 3SM -TSRA BR SCT026 BKN040 OVC060 23/21 A2993 RMK AO2 LTG DSNT ALQDS P0012 T02330211
  • KHDE: Brewster Field Airport, NE, United States
    KHDE 191515Z AUTO 15018G27KT 10SM -TSRA OVC110 14/12 A2996 RMK AO2 LTG DSNT N S AND W P0001 T01410123
  • KHLC: Hill City, KS, United States
    KHLC 191521Z AUTO 09012KT 10SM -TSRA SCT040 BKN055 BKN070 16/13 A2995 RMK AO2 WSHFT 1445 LTG DSNT NE-S RAB1456 TSB15 PRESFR P0000 T01560133
  • KJYL: Sylvania, Plantation Airpark, GA, United States
    KJYL 191655Z AUTO 04020G30KT 1 3/4SM TSRA SCT014 BKN025 OVC050 19/17 A2989 RMK AO2 LTG DSNT ALQS P0006 T01880170
    KJYL 191715Z AUTO 03007KT 10SM -TSRA SCT041 SCT050 OVC060 19/19 A2989 RMK AO2 LTG DSNT ALQS T01910185
    KJYL 191815Z AUTO 00000KT 5SM -TSRA BKN050 BKN060 OVC080 20/20 A2990 RMK AO2 LTG DSNT SE THRU W P0001 T02040200
    KJYL 191835Z AUTO 00000KT 5SM TSRA SCT018 BKN050 OVC060 21/20 A2991 RMK AO2 LTG DSNT ALQS P0002 T02050201
  • KLRO: Mt. Pleasant, SC, United States
    KLRO 191835Z AUTO VRB06G11KT M1/4SM TSRA OVC003 21/21 A2987 RMK AO2 LTG DSNT ALQDS
  • KLXN: Lexington, NE, United States
    KLXN 191535Z AUTO 15018KT 3/4SM TSRA BKN008 BKN012 OVC018 16/14 A2993 RMK AO2 VIS M1/4V5 LTG DSNT ALQS P0005 T01560138
    KLXN 191655Z AUTO 14015G22KT 10SM -TSRA CLR 14/13 A2992 RMK AO2 LTG DSNT SE AND W P0001 T01440127
  • KNBC: Beaufort, Marine Corps Air Stn, SC, United States
    KNBC 191752Z 00000KT 1/4SM -TSRA BKN016 BKN029 OVC090 21/19 A2986 RMK AO2 PK WND 34059/1722 WSHFT 1709 SFC VIS 9 RAB05 P0113
    KNBC 191756Z 00000KT 1/4SM -TSRA BKN023 BKN036 OVC095 21/20 A2986 RMK AO2 PK WND 34059/1722 WSHFT 1709 SFC VIS 10 RAB05 SLP113 P0113 60113 T02110200 10289 20189 55010
    KNBC 191800Z AUTO 13004KT 10SM -TSRA SCT025 BKN036 OVC095 22/21 A2987 RMK AO2 P0001 T02170206
  • KOFF: Omaha / Offutt AFB, NE, United States
    KOFF 191455Z 06003KT 10SM -TSRA FEW045 OVC065 14/11 A3004 RMK AO2A LTG DSNT NE RAE30DZB30E31RAB31 SLP173 P0001 60016 T01420108 50013
    KOFF 191503Z 07003KT 10SM -TSRA FEW044 OVC065 14/11 A3004 RMK AO2A SLP173
  • KOKZ: Sandersville Kaolin, GA, United States
    KOKZ 191515Z AUTO 04004KT 10SM -TSRA OVC013 23/22 A2991 RMK AO2 LTG DSNT ALQDS T02310216
    KOKZ 191635Z AUTO 29008KT 10SM -TSRA SCT007 BKN011 OVC020 21/20 A2992 RMK AO2 LTG DSNT ALQDS T02110202
    KOKZ 191715Z AUTO 26017G23KT 3SM TSRA BR OVC012 19/ A2994 RMK AO2 VIS 1 3/4V5 LTG DSNT ALQDS P0036 T0191////
    KOKZ 191755Z AUTO 03008KT 10SM -TSRA SCT012 BKN060 OVC080 20/19 A2993 RMK AO2 LTG DSNT SE AND S P0062 T01970192 10246 20186 60120
  • KOMA: Omaha, Eppley Airfield, NE, United States
    KOMA 191452Z 11009KT 6SM -TSRA BR FEW050 BKN070CB OVC090 13/11 A3004 RMK AO2 LTG DSNT E AND SE TSB26 SLP170 OCNL LTGICCCCGCA NE-SE TS NE-SE MOV NE P0008 60013 T01330111 50005
  • KSEF: Sebring, FL, United States
    KSEF 191815Z AUTO 00000KT 10SM -TSRA SCT014 SCT027 BKN070 24/22 A2994 RMK AO2 LTG DSNT ALQDS P0001 T02420218
  • KTBR: Statesboro, GA, United States
    KTBR 191735Z AUTO 07004KT 10SM -TSRA OVC034 22/16 A2988 RMK AO2 LTG DSNT ALQS T02170158
    KTBR 191815Z AUTO 10008KT 1SM TSRA BKN004 OVC008 19/18 A2989 RMK AO2 LTG DSNT ALQS T01900177
    KTBR 191835Z AUTO 03007KT 7SM TSRA SCT006 SCT010 OVC060 19/18 A2989 RMK AO2 LTG DSNT ALQS T01940183
  • KTOR: Torrington, WY, United States
    KTOR 191827Z AUTO 5SM -TSRA FEW070 OVC100 21/06 A2973 RMK AO2 RAB08 TSB21 P0005 T02110061
  • KVRB: Vero Beach, FL, United States
    KVRB 191607Z 34018G27KT 1 1/2SM TSRA FEW019 BKN060 OVC100 28/23 A2995 RMK AO2 PK WND 33027/1605 LTG DSNT E AND W RAB04 P0000 T02780228
    KVRB 191615Z 03008G24KT 3/4SM TSRA SCT020 BKN048 OVC060 26/23 A2994 RMK AO2 PK WND 33027/1605 LTG DSNT E AND SW AND W RAB04 P0025 T02610233
    KVRB 191619Z 01006KT 2SM -TSRA FEW027 SCT048 OVC060 27/24 A2994 RMK AO2 PK WND 33027/1605 LTG DSNT E AND SW AND W RAB04 P0027 T02670239
    KVRB 191626Z 35003KT 6SM -TSRA FEW029 BKN048 OVC060 27/24 A2994 RMK AO2 PK WND 33027/1605 LTG DSNT E AND SW AND W RAB04 P0027 T02720244
    KVRB 191753Z 08006KT 6SM -TSRA OVC047 27/24 A2993 RMK AO2 LTG DSNT ALQDS RAB53 TSE02B47 PRESRR SLP134 P0000 60028 T02670239 10333 20261 55005
    KVRB 191825Z 13010KT 1SM -TSRA BR BKN018 OVC060 24/22 A2994 RMK AO2 LTG DSNT ALQDS P0092 T02440222
  • LEHC: Pirineos, Spain
    LEHC 191524Z 09003KT 040V150 9999 3000SW TSRA FEW016 BKN046CB 15/12 Q1010
    LEHC 191530Z VRB02KT 8000 3000SW TSRA FEW016 BKN045CB 15/12 Q1010
    LEHC 191547Z VRB01KT 4000 TSRA BR SCT017 OVC030CB 14/12 Q1010
    LEHC 191600Z 09005KT 050V130 4000 TSRA BR SCT015 OVC040CB 14/13 Q1010
    LEHC 191620Z VRB04G15KT 6000 TSRA BKN004 OVC044CB 14/12 Q1011
    LEHC 191630Z 30013KT 6000 0800S TSRA BCFG BKN004 OVC042CB 13/11 Q1011
  • LEPP: Pamplona / Noain, Spain
    LEPP 191546Z 05007KT 9999 -TSRA SCT045CB 14/10 Q1010
    LEPP 191600Z 04005KT 9999 -TSRA SCT045CB 14/11 Q1011
    LEPP 191630Z 29014KT 250V330 9999 TSRA SCT045CB 11/10 Q1011
    LEPP 191631Z 29014KT 260V330 4000 TSRA SCT045CB 11/10 Q1011
  • LESU: Pirineus, Spain
    LESU 191550Z 17007G19KT 130V190 9999 -TSRA FEW037 BKN042CB 16/09 Q1010
    LESU 191600Z 16009G19KT 130V190 9999 -TSRA FEW037 BKN042CB OVC049 15/08 Q1010
  • LEVD: Valladolid / Villanubla, Spain
    LEVD 191524Z 15006KT 100V190 9000 4000SW TSRA SCT035 BKN045CB 13/08 Q1011
    LEVD 191530Z 12009KT 090V160 8000 3000NE -TSRA FEW018 BKN045CB 11/08 Q1011 RERA
    LEVD 191600Z 14007KT 100V170 9999 -TSRA FEW030 BKN045CB 11/08 Q1010
    LEVD 191630Z 14010KT 070V170 9999 -TSRA SCT035 BKN045CB 10/08 Q1011
  • LFBI: Poitiers, France
    LFBI 191700Z AUTO 13006KT 050V190 9999 -TSRA SCT043/// BKN049/// BKN058/// //////CB 18/12 Q1010
    LFBI 191700Z AUTO 13006KT 050V190 9999 -TSRA SCT043/// BKN049/// BKN058/// ///CB 18/12 Q1010
    LFBI 191730Z AUTO 36010KT 9999 TSRA SCT047/// BKN060/// OVC078/// //////CB 14/12 Q1010
    LFBI 191730Z AUTO 36010KT 9999 TSRA SCT047/// BKN060/// OVC078/// ///CB 14/12 Q1010
  • LFGA: Colmar Houssen Airport, France
    LFGA 191630Z AUTO 36008KT 9999 -TSRA FEW054/// BKN066/// BKN084/// ///CB 16/14 Q1010
  • LFHP: Le Puy, France
    LFHP 191530Z AUTO 04004KT 350V100 9999 -TSRA FEW024/// SCT039/// BKN047/// //////CB 12/11 Q1012
    LFHP 191530Z AUTO 04004KT 350V100 9999 -TSRA FEW024/// SCT039/// BKN047/// ///CB 12/11 Q1012
  • LFLW: Aurillac, France
    LFLW 191500Z AUTO 23003KT 9999 -TSRA BKN054/// BKN076/// OVC092/// //////CB 17/10 Q1010
    LFLW 191500Z AUTO 23003KT 9999 -TSRA BKN054/// BKN076/// OVC092/// ///CB 17/10 Q1010
  • LFRM: Le Mans, France
    LFRM 191530Z AUTO VRB03KT 9999 TSRA FEW035/// BKN044/// OVC060/// //////CB 16/13 Q1012
    LFRM 191530Z AUTO VRB03KT 9999 TSRA FEW035/// BKN044/// OVC060/// ///CB 16/13 Q1012
  • LFRN: Rennes, France
    LFRN 191530Z AUTO 15003KT 120V230 9999 -TSRA //////CB 15/13 Q1012
    LFRN 191530Z AUTO 15003KT 120V230 9999 -TSRA ///CB 15/13 Q1012
    LFRN 191600Z AUTO 05008KT 9999 4200 TSRA FEW016/// BKN088/// OVC100/// //////CB 14/11 Q1012
    LFRN 191600Z AUTO 05008KT 9999 4200 TSRA FEW016/// BKN088/// OVC100/// ///CB 14/11 Q1012
  • LFRQ: Quimper, France
    LFRQ 191600Z AUTO 29008KT 9999 -TSRA FEW048/// SCT062/// BKN076/// //////CB 13/11 Q1012
    LFRQ 191600Z AUTO 29008KT 9999 -TSRA FEW048/// SCT062/// BKN076/// ///CB 13/11 Q1012
  • LIBA: Amendola, Italy
    LIBA 191455Z 09004KT 3000 -TSRA BR FEW030CB SCT050 20/18 Q1010
    LIBA 191455Z 09004KT 3000 -TSRA BR FEW030CB SCT050 20/18 Q1010 RMK OVC BKN080 VIS MIN 3000 WIND THR11 07005KT WIND THR29 /////KT YLO
  • LIBD: Bari / Palese Macchie, Italy
    LIBD 191620Z 30006KT 260V330 2000 TSRA BKN010CB 20/19 Q1011
    LIBD 191650Z 31005KT 270V350 4000 TSRA BKN030CB 19/19 Q1011
    LIBD 191720Z 03003KT 310V080 8000 -TSRA SCT030CB 19/19 Q1010 RERA
  • LIBF: Foggia/Gino Lisa, Italy
    LIBF 191450Z 14005KT 110V200 5000 TSRA SCT040CB 19/18 Q1011
  • LKCV: Caslav, Czech Republic
    LKCV 191503Z 06006KT 9999 -TSRA SCT030CB SCT070 20/12 Q1010 RMK BLU
    LKCV 191813Z 26010KT 9999 2000SW -TSRA BKN029CB 18/13 Q1010 RMK YLO
    LKCV 191816Z 26013G23KT 6000 2000SW TSRA BKN023CB 17/13 Q1011 RMK YLO
    LKCV 191830Z 22019G34KT 1700 TSRA OVC020CB 12/09 Q1011 NOSIG RMK YLO YLO
    LKCV 191830Z 28004KT 1700 TSRAGR BKN020CB 12/10 Q1011 RMK YLO
  • LKLN: Plzen Line, Czech Republic
    LKLN 191500Z AUTO 25011G25KT 220V280 9999 -TSRA FEW041 SCT053 BKN074 15/11 Q1012
  • LKPD: Pardubice, Czech Republic
    LKPD 191818Z 32009KT 280V040 9999 -TSRA SCT026CB SCT050 17/13 Q1010 RMK BLU
  • LOWS: Salzburg-Flughafen, Austria
    LOWS 191820Z 36006KT 9999 -TSRA FEW050 FEW060CB SCT070 BKN090 19/11 Q1010
  • LQTZ: Tuzla, Serbia and Montenegro
    LQTZ 191730Z 26016G26KT 9999 -TSRA FEW035CB BKN040 19/18 Q1011
    LQTZ 191800Z 27011KT 6000 TSRA FEW035CB OVC040 17/17 Q1012
    LQTZ 191830Z VRB03KT 8000 TSRA FEW015 FEW035CB BKN040 17/17 Q1012
  • LSGC: Les Eplatures, Switzerland
    LSGC 191650Z 22012G22KT 8000 TSRA SCT034CB BKN039 12/07 Q1013 WS R23
  • OIKK: Kerman, Iran
    OIKK 191521Z 08010KT 7000 TSRA FEW035CB BKN040 25/04 Q1015 A2999
  • OITR: Orumieh, Iran
    OITR 191500Z 02012KT 7000 TSRA SCT030CB BKN035 17/09 Q1012 A2989
  • OITT: Tabriz, Iran
    OITT 191512Z 24008KT 8000 -TSRA BKN030CB FEW032TCU 19/05 Q1013 A2994
    OITT 191530Z 22008KT 8000 -TSRA BKN030CB FEW032TCU 18/05 Q1014 A2994
  • VEGT: Gauhati, India
    VEGT 191500Z 27005KT 2500 -TSRA SCT016 FEW025CB BKN090 28/27 Q1006
    VEGT 191530Z 34013KT 2000 TSRA SCT016 FEW025CB OVC080 26/26 Q1005
    VEGT 191600Z 09004KT 2000 TSRA SCT016 FEW025CB OVC080 26/25 Q1005
    VEGT 191630Z 17013KT 2000 TSRA SCT016 FEW025CB OVC080 27/27 Q1005
    VEGT 191700Z 13012KT 2000 TSRA SCT016 FEW025CB OVC080 27/26 Q1004 NOSIG
    VEGT 191730Z 18013KT 2000 TSRA SCT016 FEW025CB OVC080 28/27 Q1004 NOSIG
    VEGT 191800Z 19010KT 2000 TSRA SCT016 FEW025CB OVC080 27/27 Q1005 NOSIG
    VEGT 191830Z 19009KT 2000 TSRA SCT016 FEW025CB OVC080 27/27 Q1004 NOSIG
  • VOBG: Bangalore / Hindustan, India
    VOBG 191500Z 24003KT 4000 -TSRA SCT012 FEW025CB BKN080 23/22 Q1011 NOSIG
  • VOBL: Bengaluru, India
    VOBL 191500Z 20005KT 5000 -TSRA SCT012 SCT020 FEW025CB 22/21 Q1010 NOSIG
    VOBL 191530Z 22005KT 5000 -TSRA SCT012 SCT020 FEW025CB 22/21 Q1010 NOSIG
  • VOCL: Calicut, India
    VOCL 191630Z 22008KT 4000 -TSRA SCT006 SCT012 FEW025CB BKN080 26/25 Q1006
    VOCL 191700Z 20005KT 2000 -TSRA SCT004 SCT012 FEW025CB OVC080 25/24 Q1006
    VOCL 191730Z 21005KT 2000 -TSRA SCT004 SCT012 FEW025CB BKN080 25/24 Q1006
    VOCL 191800Z 00000KT 2000 TSRA SCT004 SCT012 FEW025CB BKN080 25/24 Q1006
    VOCL 191830Z 06002KT 2000 -TSRA SCT006 SCT012 FEW025CB BKN080 24/24 Q1005
  • VOKN: Kannur Intl, India
    VOKN 191500Z 09006KT 3000 -TSRA SCT012 FEW025CB BKN080 28/26 Q1004
    VOKN 191530Z 09006KT 1500 TSRA FEW004 SCT012 FEW025CB OVC080 27/26 Q1005 NOSIG
    VOKN 191600Z 08004KT 2500 -TSRA FEW004 SCT012 FEW025CB BKN080 27/25 Q1005 NOSIG
    VOKN 191630Z VRB02KT 2500 -TSRA FEW004 SCT012 FEW025CB BKN080 26/25 Q1005 NOSIG
    VOKN 191800Z 08005KT 2500 -TSRA FEW003 SCT012 FEW025CB BKN080 26/25 Q1006 NOSIG
    VOKN 191830Z 06004KT 2000 -TSRA FEW003 SCT012 FEW025CB BKN080 26/25 Q1005 NOSIG
  • VOTR: Tiruchchirapalli, India
    VOTR 191500Z 14003KT 2500 -TSRA SCT016 FEW025CB OVC080 COR 26/25 Q1005 NOSIG
    VOTR 191500Z 14003KT 3000 TSRA SCT016 FEW025CB OVC080 26/25 Q1005 NOSIG
    VOTR 191530Z VRB02KT 2500 -TSRA SCT015 FEW025CB OVC080 26/25 Q1005 NOSIG
  • VTBD: Don Muang, Thailand
    VTBD 191500Z 19002KT 9000 -TSRA FEW020CB SCT030 27/25 Q1007
  • VTBS: Chon Buri, Thailand
    VTBS 191500Z 23010KT 210V280 9000 -TSRA FEW015CB BKN030 27/23 Q1006
    VTBS 191530Z 25008KT 220V280 9000 -TSRA FEW020CB 26/22 Q1006
    VTBS 191600Z 28007KT 9999 -TSRA FEW020CB 25/22 Q1006
    VTBS 191730Z 24003KT 9000 -TSRA FEW020CB 25/24 Q1006 NOSIG
    VTBS 191800Z 00000KT 9000 -TSRA FEW020CB 25/24 Q1005 NOSIG
  • VVCR: Cam Ranh Bay, Viet Nam
    VVCR 191730Z 36007KT 7000 -TSRA FEW004 FEW015CB BKN040 26/25 Q1006
    VVCR 191800Z VRB01KT 7000 -TSRA FEW007 FEW015CB BKN040 26/25 Q1006
  • WBKL: Labuan, Malaysia
    WBKL 191700Z 00000KT 9999 -TSRA FEW010 FEW017CB SCT030 26/25 Q1007
  • WMKB: Buttersworth, Malaysia
    WMKB 191600Z 14003KT 5000 -TSRA FEW010 FEW017CB SCT023 28/25 Q1007 NOSIG
  • WMKI: Ipoh, Malaysia
    WMKI 191500Z 05005KT 360V080 7000 -TSRA FEW003 FEW017CB SCT024 26/25 Q1008
    WMKI 191600Z 00000KT 7000 -TSRA FEW002 FEW017CB SCT024 26/25 Q1008
    WMKI 191700Z VRB02KT 7000 -TSRA FEW002 FEW017CB SCT024 26/26 Q1008
  • WMKP: Penang / Bayan Lepas, Malaysia
    WMKP 191630Z 05003KT 340V100 6000 TSRA FEW010 FEW017CB SCT025 29/26 Q1007
    WMKP 191644Z 35003KT 320V060 8000 -TSRA FEW010 FEW017CB SCT025 29/26 Q1007 RETSRA NOSIG
    WMKP 191700Z 35005KT 8000 -TSRA FEW010 FEW017CB SCT025 28/26 Q1007 RETSRA NOSIG


0 stations reporting blizzard conditions

0 stations reporting near-blizzard conditions


1 station reporting visibility of zero

  • KMWN: Mount Washington, NH, United States
    KMWN 191653Z 28004KT 0SM -DZ FG VV000 08/08 RMK DZB40
8 stations reporting visibility 1/8 mile or less, but not zero

  • KLRO: Mt. Pleasant, SC, United States [<1/4mile]
    KLRO 191835Z AUTO VRB06G11KT M1/4SM TSRA OVC003 21/21 A2987 RMK AO2 LTG DSNT ALQDS
  • KMWN: Mount Washington, NH, United States [1/16mile]
    KMWN 191458Z 03002KT 1/16SM FG VV000 06/06 RMK
    KMWN 191552Z 04003KT 1/16SM FG VV000 07/07 RMK
    KMWN 191758Z VRB01KT 1/16SM -DZ FG VV000 07/07 RMK 60001 10083 20037
  • KPSN: Palestine, Palestine Municipal Airport, TX, United States [<1/4mile]
    KPSN 191515Z AUTO 20004KT M1/4SM -RA HZ BKN016 27/23 A2998 RMK AO2
    KPSN 191535Z AUTO VRB03KT M1/4SM -RA HZ BKN019 28/24 A2998 RMK AO2
    KPSN 191555Z AUTO VRB04KT M1/4SM -RA HZ OVC021 29/24 A2998 RMK AO2 VIS M1/4V5
  • OITL: Ardabil, Iran [100meters]
    OITL 191700Z 08019KT 0100 R15/0500D FG VV002 08/08 Q1016
    OITL 191800Z 07012KT 0100 R15/1100D FG VV002 08/08 Q1017
  • PALU: Cape Lisburne, Cape Lisburne LRRS Airport, AK, United States [<1/4mile]
    PALU 191455Z AUTO 09006KT M1/4SM -FZRA FZFG VV002 01/01 A2995
    PALU 191455Z AUTO 09006KT M1/4SM -FZRA FZFG VV002 01/01 A2995 RMK AO2 SLP142 P0000 60000 T00080010 57006
  • RJOA: Hiroshima Airport, Japan [100meters]
    RJOA 191600Z AUTO VRB01KT 0100 R28/P2000N FG OVC000 12/12 Q1014
  • YSRI: Richmond Aus-Afb, Australia [200meters]
    YSRI 191800Z AUTO 00000KT 0200 // BKN001 03/03 Q1021 RF00.0/000.0
    YSRI 191800Z AUTO 00000KT 0200 // BKN001 03/03 Q1021 RF00/0/000/0
  • YSTW: Tamworth Airport, Australia [100meters]
    YSTW 191658Z AUTO 00000KT 0100 FZFG SCT002 M00/M01 Q1021 RF00.0/000.0
    YSTW 191700Z AUTO 00000KT 0150 FZFG SCT001 M00/M01 Q1021 RF00.0/000.0
    YSTW 191701Z AUTO 00000KT 0200 FG SCT001 00/M00 Q1021 RF00.0/000.0
0 stations reporting visibility 75 miles or greater

1 station reporting visibility 50-74 miles

  • KEDW: Edwards AFB, CA, United States [50miles]
    KEDW 191655Z 25013G22KT 50SM CLR 26/06 A2992 RMK AO2A PK WND 26026/53 SLP112 T02640064
    KEDW 191755Z 27019G24KT 50SM CLR 28/05 A2992 RMK AO2A SLP111 T02830045 10284 20143 57003
    KEDW 191802Z 26020G25KT 50SM CLR 29/05 A2991 RMK AO2A


0 stations reporting aurora

0 stations reporting solar/lunar eclipse


0 stations reporting inside a hurricane eye

0 stations reporting aircraft mishap

12 stations reporting bird hazard on the runway

  • SPCL: Pucallpa, Peru
    SPCL 191500Z 14003KT 9999 SCT020 30/23 Q1016 RMK BIRD HAZARD RWY 02/20 PP000
    SPCL 191600Z 14003KT 9999 BKN020 31/23 Q1016 RMK BIRD HAZARD RWY 02/20 PP000
    SPCL 191700Z 14004KT 9999 SCT020 32/22 Q1015 RMK BIRD HAZARD RWY 02/20 PP000
    SPCL 191800Z 13005KT 9999 SCT020 33/23 Q1014 RMK BIRD HAZARD RWY 02/20 PP000
  • SPHI: Chiclayo, Peru
    SPHI 191500Z 20007KT 9999 BKN012 20/17 Q1014 RMK BIRD HAZARD RWY 19/01 PP000
    SPHI 191600Z 20005KT 160V270 9999 FEW015 23/16 Q1014 RMK BIRD HAZARD RWY 19/01 PP000
    SPHI 191700Z 19014KT 160V220 CAVOK 24/17 Q1013 RMK BIRD HAZARD RWY 19/01 PP000
    SPHI 191800Z 19017KT CAVOK 23/16 Q1012 RMK BIRD HAZARD RWY 19/01 PP000
  • SPHO: Ayacucho, Peru
    SPHO 191500Z 04005KT 340V100 9999 FEW050 18/08 Q1032 RMK BIRD HAZARD RWY 02/20 PP000
    SPHO 191600Z VRB03KT 9999 FEW050 20/08 Q1031 RMK BIRD HAZARD RWY 02/20 PP000
    SPHO 191700Z 30003KT 250V040 9999 FEW030 22/08 Q1030 RMK BIRD HAZARD RWY 02/20 PP000
    SPHO 191800Z 28005KT 230V320 9999 FEW030 FEW040TCU 23/08 Q1028 RMK BIRD HAZARD RWY 02/20 PP000
  • SPHY: Andahuayla, Peru
    SPHY 191500Z 02005KT 9999 SCT012 15/08 Q1038 RMK BIRD HAZARD RWY03/21 PP000
    SPHY 191600Z 03007KT 9999 SCT012 15/08 Q1038 RMK BIRD HAZARD RWY03/21 PP000
    SPHY 191700Z 35003KT 9999 SCT012 17/09 Q1036 RMK BIRD HAZARD RWY03/21 PP000
    SPHY 191800Z 07003KT 9999 SCT012 17/09 Q1035 RMK BIRD HAZARD RWY03/21 PP000
  • SPJC: Lima/J Chavez, Peru
    SPJC 191500Z 29006KT 6000 OVC007 18/16 Q1014 NOSIG RMK BIRD HAZARD RWY 16 PP000
    SPJC 191600Z 28007KT 7000 OVC007 18/15 Q1014 NOSIG RMK BIRD HAZARD RWY 16 PP000
    SPJC 191700Z 29010KT 7000 OVC007 18/15 Q1014 NOSIG RMK BIRD HAZARD RWY 16 PP000
    SPJC 191800Z 27008KT 7000 OVC007 18/15 Q1013 NOSIG RMK BIRD HAZARD RWY 16 PP000
  • SPME: Tumbes, Peru
    SPME 191500Z 23003KT 9999 BKN020 29/22 Q1011 RMK BIRD HAZARD RWY 32/14 PP000
    SPME 191500Z 23003KT 9999 BKN020 29/22 Q1011 RMK TN 23.7 BIRD HAZARD RWY 32/14 PP000
    SPME 191600Z 08003KT 9999 BKN020 30/22 Q1011 RMK BIRD HAZARD 32/14 PP000
    SPME 191700Z 36006KT 9999 BKN020 31/23 Q1010 RMK BIRD HAZARD RWY 32/14 PP000
    SPME 191800Z 33009KT 9999 SCT020 SCT070 30/23 Q1009 RMK BIRD HAZARD RWY 32/14 PP000
  • SPMS: Yurimaguas, Peru
    SPMS 191800Z 23006KT 9999 FEW010 OVC020 27/25 Q1013 RMK BIRD HAZARD RWY 09/27 PP000
  • SPSO: Pisco, Peru
    SPSO 191500Z 29007KT 9999 FEW015 20/16 Q1014 RMK BIRD HAZARD RWY 22/04 PP000
    SPSO 191600Z 30008KT 8000 SCT006 20/17 Q1014 RMK BIRD HAZARD RWY 22/04 PP000
    SPSO 191700Z 29008KT 8000 BKN006 19/17 Q1013 RMK BIRD HAZARD RWY 22/04 PP000
    SPSO 191800Z 29009KT 8000 BKN007 19/16 Q1012 RMK BIRD HAZARD RWY 22/04 PP000
  • SPTU: Puerto Maldonado, Peru
    SPTU 191500Z 12004KT 050V190 9999 BKN011 OVC015 20/18 Q1019 RMK BIRD HAZARD RWY 01/19 PP000
    SPTU 191600Z 12005KT 050V180 9999 BKN010 OVC015 20/18 Q1019 RMK BIRD HAZARD RWY 01/19 PP000
    SPTU 191700Z 12004KT 010V170 9999 BKN010 OVC015 20/18 Q1018 RMK BIRD HAZARD RWY 01/19 PP000
    SPTU 191800Z 12005KT 050V160 9999 BKN010 OVC015 20/17 Q1017 RMK BIRD HAZARD RWY 01/19 PP000
  • SPUR: Piura, Peru
    SPUR 191500Z 15007KT 9999 SCT012 BKN015 21/17 Q1015 RMK BIRD HAZARD RWY 19/01 PP000
    SPUR 191600Z 19006KT 9999 SCT015 SCT020 23/17 Q1014 RMK BIRD HAZARD RWY 19/01 PP000
    SPUR 191700Z 18005KT CAVOK 25/17 Q1013 RMK BIRD HAZARD RWY 19/01 PP000
    SPUR 191800Z 19006KT CAVOK 27/18 Q1011 RMK BIRD HAZARD RWY 19/01 PP000
  • SPYL: Talara, Peru
    SPYL 191500Z /////KT 9999 SCT050 22/18 Q1012 RMK BIRD HAZARD RWY 17/35 PP000
    SPYL 191600Z /////KT 9999 SCT050 23/18 Q1012 RMK BIRD HAZARD RWY 17/35 PP000
    SPYL 191700Z /////KT CAVOK 26/19 Q1011 RMK BIRD HAZARD RWY 17/35 PP000
    SPYL 191800Z /////KT CAVOK 27/18 Q1010 RMK BIRD HAZARD RWY 17/35 PP000
  • SPZO: Cuzco, Peru
    SPZO 191500Z 02003KT 310V100 9999 SCT060 16/05 Q1036 NOSIG RMK BIRD HAZARD RWY 10/28 PP000
    SPZO 191530Z 04004KT 330V100 9999 SCT060 16/05 Q1036 NOSIG RMK BIRD HAZARD RWY 10/28
    SPZO 191600Z 33005KT 280V060 9999 SCT060 18/04 Q1035 NOSIG RMK BIRD HAZARD RWY 10/28 PP000
    SPZO 191630Z VRB04KT 9999 SCT060 18/03 Q1035 NOSIG RMK BIRD HAZARD RWY 10/28
    SPZO 191700Z VRB04KT 9999 SCT060 19/03 Q1034 NOSIG RMK BIRD HAZARD RWY 10/28 PP000
    SPZO 191730Z VRB04KT 9999 SCT060 20/01 Q1033 NOSIG RMK BIRD HAZARD RWY 10/28
    SPZO 191800Z 32008KT 290V010 9999 SCT060 21/02 Q1032 NOSIG RMK BIRD HAZARD RWY 10/28 PP000
    SPZO 191830Z VRB05KT 9999 SCT060 21/M01 Q1031 NOSIG RMK BIRD HAZARD RWY 10/28
0 stations reporting volcanic ash

1 station reporting ice crystals/diamond dust

  • NZSP: Amundsen-Scott Stn, Antarctica
    NZSP 191750Z 05003KT 9999 IC SCT020 M64/ A2811 RMK CLN AIR 03006KT ALL WNDS GRID
0 stations reporting blowing spray

5 stations reporting dust or duststorm

  • LMML: Luqa, Malta
    LMML 191445Z 09017KT 060V120 7000 NSC 24/16 Q1009 NOSIG RMK DU IN SUSPENSION
    LMML 191515Z 08018KT 7000 NSC 24/16 Q1009 NOSIG RMK DU IN SUSPENSION
    LMML 191545Z 08018KT 7000 NSC 24/16 Q1009 NOSIG RMK DU IN SUSPENSION
    LMML 191615Z 08017KT 7000 NSC 23/16 Q1009 NOSIG RMK DU IN SUSPENSION
    LMML 191645Z 08017KT 7000 NSC 23/16 Q1009 NOSIG RMK DU IN SUSPENSION
    LMML 191715Z 08016KT 8000 NSC 22/16 Q1009 NOSIG RMK DU IN SUSPENSION
    LMML 191745Z 08015G25KT 9000 NSC 22/17 Q1009 NOSIG RMK DU IN SUSPENSION
    LMML 191815Z 08015KT 9000 NSC 21/17 Q1009 NOSIG RMK DU IN SUSPENSION
  • OERS: UNKNOWN,
    OERS 191500Z 30018KT 5000 BLDU NSC 39/08 Q1003 NOSIG
    OERS 191600Z 31019KT 5000 BLDU NSC 38/03 Q1003 NOSIG
  • OIKM: Bam, Iran
    OIKM 191500Z 36012KT 4000 DU FEW045 32/01 Q1007
    OIKM 191530Z 36012KT 5000 DU NSC 32/03 Q1008
    OIKM 191600Z 36012KT 5000 DU NSC 31/03 Q1008
  • OIZH: Zahedan, Iran
    OIZH 191500Z 04006KT 5000 DU FEW040TCU 26/08 Q1012 A2989 NOSIG
    OIZH 191530Z 04006KT 6000 DU FEW040TCU 25/09 Q1012 A2990
  • VIJP: Jaipur / Sanganer, India
    VIJP 191500Z 08008KT 3000 DU SCT030 SCT100 37/12 Q1003 NOSIG
6 stations reporting sand or sandstorm

  • DTTG: Gabes, Tunisia
    DTTG 191500Z 07018KT 3000 SA FEW030 26/17 Q1007 NOSIG
    DTTG 191600Z 07016KT 3000 SA FEW030 25/16 Q1007 NOSIG
    DTTG 191700Z 07013KT 4000 SA FEW030 24/17 Q1007 NOSIG
  • DTTJ: Djerba Mellita, Tunisia
    DTTJ 191500Z 05015KT 4000 SA NSC 24/19 Q1006 NOSIG
    DTTJ 191530Z 05015KT 4000 SA NSC 24/19 Q1006 NOSIG
    DTTJ 191600Z 06014KT 4000 SA NSC 24/19 Q1006 NOSIG
    DTTJ 191630Z 07013KT 4000 SA NSC 24/19 Q1006 NOSIG
    DTTJ 191700Z 06011KT 4000 SA NSC 24/19 Q1006 NOSIG
    DTTJ 191730Z 05009KT 4000 SA NSC 23/19 Q1006 NOSIG
    DTTJ 191800Z 05007KT 020V080 4000 SA NSC 23/19 Q1006 NOSIG
    DTTJ 191830Z 05006KT 4000 SA NSC 22/19 Q1006 NOSIG
  • DTTZ: Tozeur, Tunisia
    DTTZ 191800Z 09022KT 4000 SA NSC 31/17 Q1003
  • HETR: El Tor, Egypt
    HETR 191600Z 31015KT 1200 R28 R1200 SA NSC 31/16 Q1005
    HETR 191700Z 30014KT 3000 SA NSC 31/16 Q1006
  • OIKQ: Gheshm Island / Dayrestan, Iran
    OIKQ 191500Z 25016KT 4500 SA NSC 29/25 Q1001 NOSIG
  • OIZB: Zabol, Iran
    OIZB 191500Z 35031G41KT 5000 SA NSC 25/10 Q1005
0 stations reporting well-developed dust/sand whirls

22 stations reporting smoke

  • CYCQ: Chetwynd Airport, Canada
    CYCQ 191700Z 23003KT 150V270 35SM FEW040 FEW100 SCT120 OVC200 08/04 A3003 RMK CU1AC1AC1CI5 FU DIST MT W SLP192
    CYCQ 191800Z 17005KT 120V210 35SM FEW040 SCT100 SCT120 OVC200 12/03 A3002 RMK CU2AC1AC1CI5 AC TR FU DIST MT W SLP187
  • CYEG: Edmonton International, Alta., Canada
    CYEG 191517Z 28012G18KT 12SM -SHRA BKN025 OVC041 07/02 A2984 RMK SC6SC2 FU CVCTV CLD EMBD SUN DIMLY VISBL SLP126
    CYEG 191600Z 29011G17KT 10SM -SHRA BKN022 OVC037 07/03 A2984 RMK SC6SC2 FU CVCTV CLD EMBD SLP125
    CYEG 191615Z 29019G24KT 6SM -SHRA FU BKN022 OVC035 07/02 A2983 RMK SC6SC2 CVCTV CLD EMBD SLP125
    CYEG 191648Z 30020G26KT 3SM -SHRA FU BKN022 OVC032 06/03 A2984 RMK SC7SC1 CVCTV CLD EMBD SLP128
    CYEG 191700Z 33012G25KT 3SM -SHRA FU BKN020 OVC032 06/05 A2984 RMK SC6SC2 CVCTV CLD EMBD SLP130
    CYEG 191723Z 31016KT 4SM -SHRA FU BKN020 OVC032 06/04 A2985 RMK SC6SC2 CVCTV CLD EMBD SLP133
    CYEG 191800Z 31013G20KT 4SM -SHRA FU BKN022 OVC032 06/04 A2986 RMK SC6SC2 CVCTV CLD EMBD SLP136
    CYEG 191810Z 31017G24KT 3SM -RA FU BKN019 OVC032 06/04 A2986 RMK SC6SC2 SUN DIMLY VISBL SLP136
    CYEG 191824Z 31014G19KT 4SM -RA FU BKN018 OVC032 06/04 A2986 RMK SC7SC1 SUN DIMLY VISBL SLP137
  • CYXJ: Fort St John, B. C., Canada
    CYXJ 191700Z 34014G22KT 15SM -SHRA FEW033 OVC057 07/00 A3001 RMK SC1SC8 SC TR CVCTV CLD EMBD FU SLP186
    CYXJ 191800Z 32014G20KT 15SM -SHRA BKN048 OVC057 09/01 A3001 RMK SC6SC2 CVCTV CLD EMBD FU SLP187
    CYXJ 191815Z 32016KT 15SM OVC043 09/01 A3001 RMK SC8 FU SLP187
  • KALB: Albany, Albany Intl Arpt, United States
    KALB 191651Z VRB04KT 10SM BKN042 24/13 A3000 RMK AO2 SLP159 FU PLUME SW T02390128 $
  • KQD3: UNKNOWN,
    KQD3 191755Z 00000KT 8000 FU CLR 31/27 A2974 RMK AO2A SLP055 WND DATA ESTMD T03110266 10351 20015
  • MGCB: Coban, Guatemala
    MGCB 191500Z 11004KT 8000 BKN080 24/19 QFE 870.0 FU
    MGCB 191600Z 25004KT 9000 SCT070 27/20 QFE870.7 FU
    MGCB 191700Z 25006KT 9000 SCT018 29/19 QFE 870.6 FU
    MGCB 191800Z 02006KT 9000 BKN018 30/19 QFE 870.4 FU
  • MGPB: Puerto Barrios, Guatemala
    MGPB 191500Z 30006KT 4000 FU FEW018 SCT080 30/25 Q1010 A2983
    MGPB 191600Z 00000KT 4000 FU FEW018 SCT090 32/26 Q1010 A2983
    MGPB 191700Z 36008KT 3000 FU FEW020 BKN200 34/26 Q1009 A2980
    MGPB 191800Z 36008KT 3000 FU FEW020 BKN200 34/26 Q1009 A2980
  • MHCA: Catacamas, Honduras
    MHCA 191500Z 00000KT 5000 FU SCT030 31/21 Q1015
    MHCA 191600Z 03004KT 5000 FU FEW030 33/21 Q1015
    MHCA 191700Z 09003KT 5000 FU FEW030 35/20 Q1014
    MHCA 191800Z 09008KT 5000 FU FEW030 36/20 Q1013
  • MHLC: La Ceiba Airport, Honduras
    MHLC 191500Z 34004KT 5000 FU FEW025 32/25 Q1011 A2985 NOSIG
    MHLC 191600Z 36006KT 5000 FU FEW025 32/25 Q1010 A2983 NOSIG
    MHLC 191800Z 04006KT 9999 4000W FU FEW028 SCT080 32/26 Q1010 A2983 NOSIG
  • MHLM: La Mesa San Pedro Sula, Honduras
    MHLM 191608Z 00000KT 3000 FU SCT026 35/23 Q1010 A2983 NOSIG
    MHLM 191700Z 10005KT 3000 FU SCT026 35/24 Q1009 A2980 NOSIG
    MHLM 191800Z 08008KT 3000 FU SCT026 36/25 Q1008 A2977 NOSIG
  • MHRO: Roatan, Honduras
    MHRO 191500Z 17004KT 1000 FU FEW020 32/28 Q1011 A2985 NOSIG
    MHRO 191600Z 10007KT 1000 FU FEW018 31/27 Q1011 A2985 NOSIG
    MHRO 191700Z 10011KT 1000 FU BKN016 30/26 Q1011 A2985 NOSIG
    MHRO 191800Z 11010KT 3000 FU OVC016 31/26 Q1010 A2983 NOSIG
  • MHTE: Tela, Honduras
    MHTE 191500Z 00000KT 7000 4000SW FU NSC 33/27 Q1008 A2977
    MHTE 191600Z 36006KT 8000 5000SW FU SCT028 33/27 Q1008 A2977
    MHTE 191700Z 36008KT 7000 5000SW FU SCT028 BKN080 33/28 Q1008 A2977
    MHTE 191800Z 36012KT 7000 5000SW FU FEW028TCU BKN080 33/28 Q1008 A2977
  • MHTG: Tegucigalpa, Honduras
    MHTG 191500Z 32004KT 9999 5000W FU FEW032 27/18 Q1019 A3009 NOSIG
  • MHTR: Trujillo, Honduras
    MHTR 191500Z 00000KT 4000 FU FEW022 32/26
    MHTR 191600Z 00000KT 4000 FU FEW023 33/26
    MHTR 191700Z 05003KT 4000 FU FEW024 33/26
    MHTR 191800Z 06003KT 5000 FU FEW024 34/26
  • MMGA: UNKNOWN,
    MMGA 191540Z E28002KT 10SM SKC ///// A//// RMK FU SE
    MMGA 191640Z E20005KT 10SM SKC ///// A//// RMK VSBY LWR E FU
  • MMVA: Villahermosa, Mexico
    MMVA 191446Z 07009KT 4SM SCT017 BKN070 28/24 A2991 RMK SLP130 52044 935 8/510 FU AND HZY
    MMVA 191541Z 00000KT 4SM SCT017 BKN070 30/24 A2991 RMK 8/510 FU AND HZY
    MMVA 191640Z 00000KT 4SM SCT017 BKN070 32/25 A2990 RMK 8/530 FU AND HZY
    MMVA 191745Z 02004KT 4SM SCT018 SCT070 BKN210 34/24 A2988 RMK SLP117 57013 930 8/538 FU AND HZY
  • MNRS: Rivas, Nicaragua
    MNRS 191500Z 36004KT 9000 FEW015CB BKN016TCU 31/26 Q1011 CB/S TCU/NE/E/SE/SW FU
    MNRS 191600Z 10004KT 9000 FEW015CB SCT017 32/26 Q1011 CB/E/S FU
    MNRS 191700Z 00000KT 9000 FEW015CB SCT017 33/25 Q1010 CB/NE/E/SE/S FU
    MNRS 191800Z 00000KT 9000 FEW015CB 34/26 Q1009 CB/NE/E/SE/S FU
  • ORNI: Al-ashraf, Iraq
    ORNI 191700Z 04004KT 5000 FU NSC 35/08 Q1005
    ORNI 191800Z 00000KT 5000 FU NSC 32/09 Q1006
  • TLPL: Hewanorra Intl Arpt, Saint Lucia
    TLPL 191700Z 10015KT 9999 1000 FU SCT028 32/26 Q1015 NOSIG
    TLPL 191800Z 10016KT 9999 1000SE FU FEW028 32/25 Q1014 NOSIG
  • UNEE: Kemerovo, Russia
    UNEE 191530Z 29002MPS 3300 BR FU SCT035 12/12 Q1010 R23/290155 NOSIG RMK QFE735
    UNEE 191600Z 31002MPS 2700 BR FU SCT007 12/12 Q1010 R23/////// NOSIG RMK QFE735
    UNEE 191630Z 35002MPS 4100 BR FU SCT005 12/12 Q1011 R23/////// NOSIG RMK QFE735
    UNEE 191700Z 34002MPS 5000 BR FU FEW005 12/12 Q1011 R23/////// NOSIG RMK QFE735
  • VAAH: Ahmadabad, India
    VAAH 191500Z 29004KT 4000 FU NSC 39/09 Q0999 NOSIG
    VAAH 191530Z 28004KT 4000 FU NSC 38/09 Q0999 NOSIG
    VAAH 191600Z 29005KT 4000 FU NSC 38/09 Q1000 NOSIG
    VAAH 191630Z 28006KT 5000 FU NSC 38/10 Q1000 NOSIG
    VAAH 191700Z 26005KT 5000 FU NSC 37/11 Q1001 NOSIG
    VAAH 191730Z 27007KT 5000 FU NSC 37/11 Q1001 NOSIG
    VAAH 191800Z 27007KT 5000 FU NSC 36/12 Q1001 NOSIG
    VAAH 191830Z 27006KT 5000 FU NSC 36/12 Q1001 NOSIG
  • VABO: Vadodara, India
    VABO 191500Z 27003KT 4000 FU NSC 38/19 Q0999
    VABO 191530Z 29003KT 3000 FU NSC 38/20 Q0999 NOSIG
    VABO 191600Z 30004KT 3000 FU NSC 37/20 Q1000 NOSIG
    VABO 191630Z 24006KT 3000 FU NSC 36/20 Q1000 NOSIG
    VABO 191700Z 23006KT 3000 FU NSC 36/20 Q1001 NOSIG


Stations falling into 5 or more extreme categories

Stations falling into 4 extreme categories

Stations falling into 3 extreme categories

  • KNBC: Beaufort, Marine Corps Air Stn, SC, United States
        Wind, Hourly Precip Total, Thunderstorm
  • KVRB: Vero Beach, FL, United States
        Dewpoint, Hourly Precip Total, Thunderstorm
Stations falling into 2 extreme categories

  • EHEH: Eindhoven, Netherlands
        Precipitation Type/Intensity, Thunderstorm
  • EHWO: Woensdrecht, Netherlands
        Precipitation Type/Intensity, Thunderstorm
  • ETAD: Spangdahlem, Germany
        Precipitation Type/Intensity, Thunderstorm
  • EYVI: Vilnius, Lithuania
        Precipitation Type/Intensity, Thunderstorm
  • KARW: Beaufort, SC, United States
        Hourly Precip Total, Thunderstorm
  • KFPR: Fort Pierce, St. Lucie County Intl Arpt, FL, United States
        Hourly Precip Total, Thunderstorm
  • KLRO: Mt. Pleasant, SC, United States
        Thunderstorm, Visibility
  • KOKZ: Sandersville Kaolin, GA, United States
        Hourly Precip Total, Thunderstorm
  • KQD3: UNKNOWN,
        Dewpoint, Smoke
  • KSEF: Sebring, FL, United States
        Wind, Thunderstorm
  • LFGA: Colmar Houssen Airport, France
        Precipitation Type/Intensity, Thunderstorm
  • MGPB: Puerto Barrios, Guatemala
        Dewpoint, Smoke
  • MHLC: La Ceiba Airport, Honduras
        Dewpoint, Smoke
  • MHRO: Roatan, Honduras
        Dewpoint, Smoke
  • MHTE: Tela, Honduras
        Dewpoint, Smoke
  • MHTR: Trujillo, Honduras
        Dewpoint, Smoke
  • MNRS: Rivas, Nicaragua
        Dewpoint, Smoke
  • NZSP: Amundsen-Scott Stn, Antarctica
        Temperature, Ice Crystals/Diamond Dust
  • OIZB: Zabol, Iran
        Wind, Sand/Sandstorm
  • PKMR: Majuro Atoll NWS Office, Marshall Islands
        Precipitation Type/Intensity, 3/6-Hourly Precip Total
  • SPHY: Andahuayla, Peru
        Pressure, Bird Hazard
  • SPZO: Cuzco, Peru
        Pressure, Bird Hazard
  • TLPL: Hewanorra Intl Arpt, Saint Lucia
        Dewpoint, Smoke
  • VEGT: Gauhati, India
        Dewpoint, Thunderstorm
  • VOKN: Kannur Intl, India
        Dewpoint, Thunderstorm
  • VOTR: Tiruchchirapalli, India
        Dewpoint, Thunderstorm
  • VTBD: Don Muang, Thailand
        Dewpoint, Thunderstorm
  • VVCR: Cam Ranh Bay, Viet Nam
        Dewpoint, Thunderstorm
  • WBKL: Labuan, Malaysia
        Dewpoint, Thunderstorm
  • WMKI: Ipoh, Malaysia
        Dewpoint, Thunderstorm
  • WMKP: Penang / Bayan Lepas, Malaysia
        Dewpoint, Thunderstorm


86 unidentified stations (out of a total of 165 documented unknown stations)

  • ENUN (OLD)
  • EQYE (OLD)
  • EQYF (OLD)
  • EQYT (OLD)
  • EQYV (OLD)
  • FCOD (NEW)
  • HESX (NEW)
  • HKGO (OLD)
  • HTIB (OLD)
  • K0D8 (NEW)
  • K0W3 (NEW)
  • K10U (NEW)
  • K1D8 (NEW)
  • K1K8 (NEW)
  • K2M8 (NEW)
  • K2R2 (NEW)
  • K3K7 (NEW)
  • K3W7 (NEW)
  • K42A (NEW)
  • K49B (NEW)
  • K4B8 (NEW)
  • K60R (NEW)
  • K8V7 (NEW)
  • K9Y1 (NEW)
  • KACZ (NEW)
  • KANR (NEW)
  • KBFA (NEW)
  • KC08 (NEW)
  • KCPP (NEW)
  • KCSB (NEW)
  • KD09 (NEW)
  • KDRP (NEW)
  • KE57 (NEW)
  • KE77 (NEW)
  • KETO (NEW)
  • KFOM (NEW)
  • KGDK (NEW)
  • KHVC (NEW)
  • KI40 (NEW)
  • KI95 (NEW)
  • KK83 (NEW)
  • KMCZ (NEW)
  • KMKQ (NEW)
  • KN79 (NEW)
  • KOYE (NEW)
  • KQA8 (OLD)
  • KQAL (OLD)
  • KQB3 (OLD)
  • KQD3 (OLD)
  • KQEK (OLD)
  • KQEO (OLD)
  • KQFL (OLD)
  • KQGE (OLD)
  • KQHB (OLD)
  • KQHC (OLD)
  • KQRD (OLD)
  • KQRR (NEW)
  • KQX2 (OLD)
  • KQXH (OLD)
  • KS12 (NEW)
  • KSBX (NEW)
  • KTQV (OLD)
  • KU64 (NEW)
  • KVGN (NEW)
  • LETU (OLD)
  • LIRY (NEW)
  • LRBV (NEW)
  • LTFO (OLD)
  • MGMT (OLD)
  • MGTU (OLD)
  • MMGA (NEW)
  • NZQN (NEW)
  • OEMN (NEW)
  • OERS (NEW)
  • OKKK (NEW)
  • PACX (NEW)
  • PANU (NEW)
  • PAPE (NEW)
  • PFKO (NEW)
  • PFTO (NEW)
  • PFZK (NEW)
  • UBBZ (NEW)
  • VDSA (NEW)
  • VOGA (NEW)
  • WILL (NEW)
  • YBSU (NEW)